Time;durP1;ratioP1;P1;durP2;ratioP2;P2;SDS_P1;SDS_P2;PMS_P1;PMS_P2;Temp;Humidity;BMP_temperature;BMP_pressure;BME280_temperature;BME280_humidity;BME280_pressure;Samples;Min_cycle;Max_cycle;Signal;HPM_P1;HPM_P2
2020/12/01 00:01:09;;;;;;;129.85;77.70;;;17.20;65.20;;;;;;5034398;28;20092;-54
2020/12/01 00:03:34;;;;;;;130.80;79.80;;;17.20;65.40;;;;;;5034406;28;20022;-54
2020/12/01 00:06:00;;;;;;;125.43;75.47;;;17.20;65.70;;;;;;5034450;28;20052;-53
2020/12/01 00:08:25;;;;;;;136.27;76.53;;;17.10;65.70;;;;;;5034353;28;20079;-50
2020/12/01 00:10:51;;;;;;;128.95;75.82;;;17.10;65.80;;;;;;5034054;28;20021;-54
2020/12/01 00:13:17;;;;;;;131.35;75.97;;;17.10;65.90;;;;;;5033993;28;20104;-51
2020/12/01 00:15:42;;;;;;;126.05;72.38;;;17.10;66.30;;;;;;5034141;28;20021;-55
2020/12/01 00:18:08;;;;;;;127.63;71.95;;;17.10;66.60;;;;;;5034183;28;20385;-54
2020/12/01 00:20:33;;;;;;;116.75;69.88;;;17.10;66.30;;;;;;5041765;28;20036;-57
2020/12/01 00:23:00;;;;;;;115.22;67.95;;;17.00;66.30;;;;;;5052152;28;20065;-53
2020/12/01 00:25:26;;;;;;;121.50;70.32;;;17.00;66.40;;;;;;5052263;28;20033;-55
2020/12/01 00:27:51;;;;;;;118.05;67.68;;;16.90;66.50;;;;;;5053207;28;20076;-53
2020/12/01 00:30:22;;;;;;;116.72;67.63;;;17.00;66.40;;;;;;5053522;28;20021;-53
2020/12/01 00:32:48;;;;;;;117.68;68.68;;;17.10;66.10;;;;;;5054109;28;20116;-51
2020/12/01 00:35:23;;;;;;;118.35;70.75;;;17.10;66.20;;;;;;5053744;28;20033;-50
2020/12/01 00:37:49;;;;;;;122.00;69.63;;;17.10;65.80;;;;;;5053562;28;20373;-51
2020/12/01 00:40:16;;;;;;;121.45;70.70;;;17.20;65.70;;;;;;5053992;28;20107;-51
2020/12/01 00:42:42;;;;;;;116.75;66.97;;;17.20;65.50;;;;;;5053553;28;20499;-50
2020/12/01 00:45:09;;;;;;;112.30;67.05;;;17.20;65.50;;;;;;5053685;28;20079;-50
2020/12/01 00:47:35;;;;;;;114.30;64.25;;;17.20;65.50;;;;;;5053653;28;20091;-53
2020/12/01 00:50:00;;;;;;;109.07;64.55;;;17.20;65.40;;;;;;5053380;28;20449;-53
2020/12/01 00:52:26;;;;;;;108.70;62.97;;;17.10;65.30;;;;;;5053395;28;20056;-52
2020/12/01 00:54:52;;;;;;;106.95;61.92;;;17.10;65.40;;;;;;5053597;28;20024;-53
2020/12/01 00:57:18;;;;;;;111.75;63.47;;;17.10;65.40;;;;;;5053564;28;20028;-53
2020/12/01 00:59:43;;;;;;;101.18;61.38;;;17.00;65.50;;;;;;5053428;28;20071;-52
2020/12/01 01:02:09;;;;;;;99.78;60.63;;;16.90;65.70;;;;;;5053491;28;20059;-54
2020/12/01 01:04:35;;;;;;;109.78;59.10;;;16.90;66.10;;;;;;5053417;28;20362;-53
2020/12/01 01:07:00;;;;;;;104.03;60.00;;;16.90;66.60;;;;;;5053461;28;20025;-52
2020/12/01 01:09:26;;;;;;;103.20;58.75;;;16.80;66.20;;;;;;5053242;28;20032;-53
2020/12/01 01:11:52;;;;;;;98.43;60.50;;;16.90;67.00;;;;;;5053335;28;20036;-51
2020/12/01 01:14:18;;;;;;;95.55;58.28;;;16.90;66.20;;;;;;5053473;28;20517;-54
2020/12/01 01:16:44;;;;;;;103.15;58.25;;;16.90;66.10;;;;;;5053390;28;20029;-52
2020/12/01 01:19:11;;;;;;;103.18;60.90;;;17.00;66.10;;;;;;5053289;28;20025;-53
2020/12/01 01:21:42;;;;;;;102.53;57.95;;;17.10;65.80;;;;;;5053231;28;20068;-53
2020/12/01 01:24:09;;;;;;;92.63;55.65;;;17.20;65.60;;;;;;5053149;28;20385;-52
2020/12/01 01:26:35;;;;;;;93.20;55.67;;;17.30;65.30;;;;;;5053181;28;20029;-53
2020/12/01 01:29:00;;;;;;;95.95;55.00;;;17.50;64.70;;;;;;5053375;28;20525;-54
2020/12/01 01:31:26;;;;;;;95.05;55.38;;;17.60;64.10;;;;;;5053184;28;20539;-53
2020/12/01 01:33:52;;;;;;;89.72;52.63;;;17.60;64.10;;;;;;5053257;28;20025;-52
2020/12/01 01:36:17;;;;;;;92.43;54.55;;;17.80;63.60;;;;;;5053117;28;20021;-51
2020/12/01 01:38:43;;;;;;;88.88;55.67;;;18.00;63.00;;;;;;5053226;28;20386;-51
2020/12/01 01:41:09;;;;;;;87.22;51.97;;;18.10;62.40;;;;;;5053062;28;20090;-52
2020/12/01 01:43:34;;;;;;;90.40;50.90;;;18.20;62.00;;;;;;5053144;28;20474;-53
2020/12/01 01:46:01;;;;;;;91.60;51.80;;;18.20;61.90;;;;;;5053115;28;20159;-51
2020/12/01 01:48:29;;;;;;;88.10;53.15;;;18.10;62.40;;;;;;5054486;28;20025;-51
2020/12/01 01:51:01;;;;;;;80.97;50.17;;;18.00;62.80;;;;;;5056842;28;20040;-54
2020/12/01 01:53:29;;;;;;;82.40;50.17;;;17.90;63.10;;;;;;5057293;28;20028;-53
2020/12/01 01:56:00;;;;;;;82.47;49.30;;;17.80;63.40;;;;;;5056723;28;20029;-51
2020/12/01 01:58:33;;;;;;;82.38;52.95;;;17.80;63.50;;;;;;5056939;28;20033;-52
2020/12/01 02:01:14;;;;;;;82.53;48.90;;;17.70;63.50;;;;;;5056479;28;21813;-52
2020/12/01 02:04:06;;;;;;;81.60;48.00;;;17.70;63.70;;;;;;5056894;28;20051;-50
2020/12/01 02:06:50;;;;;;;77.28;46.65;;;17.70;63.70;;;;;;5056227;28;20041;-52
2020/12/01 02:09:21;;;;;;;81.95;48.40;;;17.70;63.60;;;;;;5056547;28;20432;-51
2020/12/01 02:11:47;;;;;;;;;;;17.70;63.60;;;;;;5056816;28;20029;-50
2020/12/01 02:14:28;;;;;;;76.72;45.63;;;17.70;63.70;;;;;;5056347;28;19963;-53
2020/12/01 02:16:58;;;;;;;83.45;49.42;;;17.70;63.70;;;;;;5056487;28;20028;-51
2020/12/01 02:19:30;;;;;;;80.67;45.90;;;17.60;63.80;;;;;;5056347;28;20017;-51
2020/12/01 02:21:57;;;;;;;73.50;44.65;;;17.60;63.80;;;;;;5041173;28;20041;-52
2020/12/01 02:24:28;;;;;;;72.78;43.88;;;17.60;63.80;;;;;;5036789;28;20071;-52
2020/12/01 02:26:58;;;;;;;73.03;43.33;;;17.60;63.80;;;;;;5034673;28;20026;-51
2020/12/01 02:29:29;;;;;;;72.50;42.60;;;17.60;63.80;;;;;;5036273;28;20036;-52
2020/12/01 02:31:54;;;;;;;68.43;42.15;;;17.60;63.90;;;;;;5036252;28;20025;-51
2020/12/01 02:34:24;;;;;;;71.18;43.53;;;17.50;63.90;;;;;;5036562;28;20108;-52
2020/12/01 02:36:50;;;;;;;71.93;44.03;;;17.60;63.70;;;;;;5035965;28;20036;-53
2020/12/01 02:39:22;;;;;;;73.70;43.83;;;17.70;63.30;;;;;;5035934;28;20037;-50
2020/12/01 02:41:52;;;;;;;72.50;43.75;;;17.80;63.10;;;;;;5036008;28;20048;-53
2020/12/01 02:44:17;;;;;;;70.18;43.72;;;17.80;63.20;;;;;;5035715;28;20029;-52
2020/12/01 02:46:43;;;;;;;65.85;41.78;;;17.80;63.00;;;;;;5036165;28;20113;-53
2020/12/01 02:49:09;;;;;;;66.10;41.28;;;17.80;63.10;;;;;;5035744;28;20029;-51
2020/12/01 02:51:35;;;;;;;64.40;40.75;;;17.70;63.30;;;;;;5035682;28;20030;-50
2020/12/01 02:54:01;;;;;;;68.03;40.58;;;17.70;63.40;;;;;;5036122;28;20036;-53
2020/12/01 02:56:27;;;;;;;65.30;41.42;;;17.60;63.60;;;;;;5035861;28;20125;-53
2020/12/01 02:58:53;;;;;;;65.63;42.00;;;17.60;63.80;;;;;;5035306;28;20061;-51
2020/12/01 03:01:18;;;;;;;62.25;41.75;;;17.50;63.90;;;;;;5035621;28;20056;-52
2020/12/01 03:03:45;;;;;;;66.25;41.40;;;17.50;64.00;;;;;;5036211;28;20083;-52
2020/12/01 03:06:17;;;;;;;65.05;39.15;;;17.50;64.00;;;;;;5035460;28;20036;-53
2020/12/01 03:08:43;;;;;;;64.63;39.15;;;17.40;64.20;;;;;;5035475;28;20029;-53
2020/12/01 03:11:09;;;;;;;64.32;38.85;;;17.40;64.30;;;;;;5035483;28;20057;-54
2020/12/01 03:13:36;;;;;;;65.50;40.15;;;17.40;64.40;;;;;;5035265;28;20047;-51
2020/12/01 03:16:07;;;;;;;60.47;38.63;;;17.40;64.40;;;;;;5035597;28;20139;-52
2020/12/01 03:18:33;;;;;;;61.33;39.13;;;17.30;64.50;;;;;;5035341;28;20466;-51
2020/12/01 03:20:58;;;;;;;59.97;36.70;;;17.30;64.50;;;;;;5035195;28;20037;-53
2020/12/01 03:23:24;;;;;;;64.20;38.80;;;17.30;64.50;;;;;;5035595;28;20057;-53
2020/12/01 03:25:50;;;;;;;61.65;38.75;;;17.30;64.50;;;;;;5035232;28;20033;-53
2020/12/01 03:28:15;;;;;;;61.15;37.78;;;17.30;64.50;;;;;;5035407;28;20033;-51
2020/12/01 03:30:41;;;;;;;61.45;37.95;;;17.30;64.60;;;;;;5034899;28;20156;-53
2020/12/01 03:33:07;;;;;;;63.38;38.03;;;17.20;64.70;;;;;;5035353;28;20041;-53
2020/12/01 03:35:34;;;;;;;57.50;37.03;;;17.20;64.80;;;;;;5034857;28;20079;-51
2020/12/01 03:38:00;;;;;;;60.50;37.65;;;17.20;64.90;;;;;;5034958;28;20040;-54
2020/12/01 03:40:25;;;;;;;56.17;36.10;;;17.20;64.80;;;;;;5034813;28;20116;-53
2020/12/01 03:42:51;;;;;;;56.60;37.60;;;17.20;64.80;;;;;;5034766;28;20123;-53
2020/12/01 03:45:17;;;;;;;56.33;37.05;;;17.20;64.80;;;;;;5034868;28;20053;-51
2020/12/01 03:47:43;;;;;;;59.25;35.63;;;17.20;64.80;;;;;;5034741;28;20021;-52
2020/12/01 03:50:08;;;;;;;57.33;36.05;;;17.20;64.80;;;;;;5034723;28;20036;-53
2020/12/01 03:52:35;;;;;;;57.75;35.58;;;17.20;64.90;;;;;;5034921;28;20112;-51
2020/12/01 03:55:03;;;;;;;60.45;35.50;;;17.40;64.00;;;;;;5034581;28;20476;-52
2020/12/01 03:57:29;;;;;;;58.45;35.05;;;17.30;64.50;;;;;;5034535;28;20429;-54
2020/12/01 03:59:54;;;;;;;60.08;35.13;;;17.20;64.60;;;;;;5034467;28;20045;-53
2020/12/01 04:02:20;;;;;;;54.38;34.33;;;17.20;64.70;;;;;;5034228;28;20049;-53
2020/12/01 04:04:46;;;;;;;53.92;34.75;;;17.10;64.80;;;;;;5034477;28;20036;-51
2020/12/01 04:07:11;;;;;;;52.20;33.42;;;17.10;65.10;;;;;;5034355;28;20029;-52
2020/12/01 04:09:37;;;;;;;51.03;32.35;;;17.00;65.10;;;;;;5034354;28;20025;-51
2020/12/01 04:12:02;;;;;;;53.15;34.83;;;17.00;65.40;;;;;;5033689;28;20072;-51
2020/12/01 04:14:28;;;;;;;54.35;32.92;;;17.00;65.50;;;;;;5034293;28;20021;-53
2020/12/01 04:16:54;;;;;;;54.47;34.53;;;17.00;65.50;;;;;;5034192;28;20057;-51
2020/12/01 04:19:19;;;;;;;53.40;32.35;;;17.00;65.70;;;;;;5034085;28;20109;-53
2020/12/01 04:21:45;;;;;;;52.60;33.72;;;17.00;65.80;;;;;;5038256;28;20049;-52
2020/12/01 04:24:12;;;;;;;52.42;33.28;;;16.90;65.50;;;;;;5034213;28;20090;-53
2020/12/01 04:26:37;;;;;;;45.60;30.30;;;17.00;65.50;;;;;;5033234;28;20462;-50
2020/12/01 04:29:03;;;;;;;50.63;31.65;;;17.10;65.20;;;;;;5033925;28;20025;-54
2020/12/01 04:31:29;;;;;;;48.53;29.98;;;17.30;64.90;;;;;;5033644;28;20037;-54
2020/12/01 04:33:54;;;;;;;46.00;29.77;;;17.40;64.40;;;;;;5033913;28;20424;-53
2020/12/01 04:36:20;;;;;;;54.22;33.20;;;17.50;63.90;;;;;;5033878;28;20048;-53
2020/12/01 04:38:46;;;;;;;47.45;29.95;;;17.60;63.40;;;;;;5033800;28;20021;-52
2020/12/01 04:41:12;;;;;;;48.67;31.00;;;17.80;62.90;;;;;;5033796;28;20076;-53
2020/12/01 04:43:43;;;;;;;48.80;31.15;;;17.80;63.00;;;;;;5033658;28;20104;-53
2020/12/01 04:46:13;;;;;;;46.33;29.92;;;17.90;62.70;;;;;;5033773;28;20112;-54
2020/12/01 04:48:44;;;;;;;49.47;30.98;;;18.10;62.20;;;;;;5033861;28;20116;-53
2020/12/01 04:51:35;;;;;;;44.47;28.23;;;18.20;61.80;;;;;;5033693;28;20036;-56
2020/12/01 04:54:49;;;;;;;42.78;26.83;;;18.30;61.40;;;;;;5033749;28;20026;-52
2020/12/01 04:57:39;;;;;;;41.25;28.08;;;18.30;61.50;;;;;;5033162;28;20390;-53
2020/12/01 05:00:31;;;;;;;42.47;26.65;;;18.10;62.00;;;;;;5033637;28;20454;-53
2020/12/01 05:03:24;;;;;;;48.70;28.73;;;18.00;62.10;;;;;;5033501;28;20045;-54
2020/12/01 05:06:05;;;;;;;37.28;26.05;;;18.10;62.20;;;;;;5033529;28;20462;-51
2020/12/01 05:08:37;;;;;;;;;;;18.10;62.00;;;;;;5034260;28;20030;-52
2020/12/01 05:11:12;;;;;;;43.55;25.60;;;18.20;61.60;;;;;;5033563;28;19905;-51
2020/12/01 05:13:38;;;;;;;39.33;26.45;;;18.20;61.40;;;;;;5033429;28;20474;-52
2020/12/01 05:16:33;;;;;;;41.63;27.60;;;18.30;61.30;;;;;;5033215;28;20032;-52
2020/12/01 05:18:59;;;;;;;41.53;26.67;;;18.40;61.50;;;;;;5033488;28;20083;-54
2020/12/01 05:21:26;;;;;;;38.63;25.02;;;18.40;60.70;;;;;;5033382;28;20462;-53
2020/12/01 05:23:53;;;;;;;40.47;26.85;;;18.50;60.60;;;;;;5037493;28;20080;-52
2020/12/01 05:26:38;;;;;;;40.35;25.23;;;18.60;60.50;;;;;;5037155;28;20517;-53
2020/12/01 05:29:04;;;;;;;39.20;24.75;;;18.60;60.20;;;;;;5037363;28;20025;-51
2020/12/01 05:31:41;;;;;;;40.95;25.98;;;18.70;60.30;;;;;;5037570;28;20033;-54
2020/12/01 05:34:17;;;;;;;34.65;24.63;;;18.80;60.00;;;;;;5037172;28;20438;-52
2020/12/01 05:36:43;;;;;;;34.67;23.35;;;18.80;59.80;;;;;;5037374;28;20025;-51
2020/12/01 05:39:18;;;;;;;39.50;24.70;;;18.90;59.70;;;;;;5037152;28;20469;-54
2020/12/01 05:42:12;;;;;;;36.75;23.77;;;18.90;59.60;;;;;;5037147;28;20492;-51
2020/12/01 05:44:38;;;;;;;33.92;23.50;;;;;;;;;;5037432;28;20037;-51
2020/12/01 05:47:14;;;;;;;37.55;25.52;;;18.90;59.30;;;;;;5036871;28;20022;-53
2020/12/01 05:49:44;;;;;;;35.40;22.25;;;19.00;59.90;;;;;;5037361;28;20034;-51
2020/12/01 05:52:25;;;;;;;34.63;23.17;;;19.00;59.70;;;;;;5037202;28;20033;-51
2020/12/01 05:55:11;;;;;;;35.55;23.00;;;19.10;59.60;;;;;;5037124;28;20386;-52
2020/12/01 05:57:37;;;;;;;36.40;21.90;;;19.10;59.60;;;;;;5036636;28;20029;-51
2020/12/01 06:00:24;;;;;;;31.33;21.75;;;19.10;59.50;;;;;;5036557;28;20032;-52
2020/12/01 06:03:04;;;;;;;33.88;22.05;;;19.10;59.60;;;;;;5036373;28;20053;-51
2020/12/01 06:05:29;;;;;;;30.58;20.35;;;19.10;59.40;;;;;;5036725;28;20036;-54
2020/12/01 06:08:03;;;;;;;30.98;21.75;;;19.10;59.40;;;;;;5036840;28;20108;-52
2020/12/01 06:10:40;;;;;;;32.38;22.42;;;19.10;59.40;;;;;;5036454;28;20504;-53
2020/12/01 06:13:41;;;;;;;35.05;22.90;;;19.00;59.40;;;;;;5036493;28;20029;-53
2020/12/01 06:16:18;;;;;;;33.30;22.30;;;19.00;59.50;;;;;;5036276;28;20065;-53
2020/12/01 06:19:08;;;;;;;33.20;21.25;;;19.00;59.50;;;;;;5036406;28;20029;-50
2020/12/01 06:22:04;;;;;;;31.60;20.05;;;19.00;59.50;;;;;;5035568;28;20389;-57
2020/12/01 06:24:39;;;;;;;29.88;19.98;;;19.00;59.60;;;;;;5055040;28;20025;-53
2020/12/01 06:27:57;;;;;;;31.40;21.20;;;19.00;59.60;;;;;;5055415;28;20431;-55
2020/12/01 06:30:53;;;;;;;30.92;20.42;;;18.90;59.60;;;;;;5055386;28;20021;-52
2020/12/01 06:33:52;;;;;;;30.45;18.77;;;18.80;59.90;;;;;;5055427;28;20029;-52
2020/12/01 06:36:42;;;;;;;30.88;20.35;;;18.70;60.10;;;;;;5054770;28;20092;-50
2020/12/01 06:39:27;;;;;;;28.93;18.60;;;18.70;60.10;;;;;;5056108;28;20032;-51
2020/12/01 06:42:09;;;;;;;33.60;20.33;;;18.70;60.20;;;;;;5056345;28;20726;-54
2020/12/01 06:44:38;;;;;;;31.27;19.77;;;18.60;60.30;;;;;;5055884;28;20351;-51
2020/12/01 06:47:03;;;;;;;28.23;18.30;;;18.60;60.50;;;;;;5056200;28;20377;-52
2020/12/01 06:49:31;;;;;;;31.52;20.48;;;18.50;60.90;;;;;;5055629;28;20154;-52
2020/12/01 06:52:11;;;;;;;28.65;18.88;;;18.70;60.60;;;;;;5055666;28;20457;-52
2020/12/01 06:54:49;;;;;;;26.48;18.33;;;18.70;60.00;;;;;;5055766;28;20024;-51
2020/12/01 06:57:34;;;;;;;28.83;18.85;;;18.80;59.90;;;;;;5055683;28;20035;-51
2020/12/01 07:00:01;;;;;;;29.77;19.77;;;18.80;59.90;;;;;;5055549;28;20035;-54
2020/12/01 07:02:38;;;;;;;31.75;19.45;;;18.70;60.20;;;;;;5054885;28;20045;-51
2020/12/01 07:05:06;;;;;;;25.85;18.35;;;18.60;60.50;;;;;;5055597;28;20037;-51
2020/12/01 07:07:35;;;;;;;27.30;18.33;;;18.50;60.80;;;;;;5055467;28;20478;-54
2020/12/01 07:10:12;;;;;;;31.00;19.13;;;18.40;60.90;;;;;;5055668;28;20036;-54
2020/12/01 07:12:49;;;;;;;28.13;17.63;;;18.40;60.90;;;;;;5055359;28;20412;-51
2020/12/01 07:15:35;;;;;;;28.58;20.05;;;18.40;60.90;;;;;;5055165;28;20453;-51
2020/12/01 07:18:21;;;;;;;27.23;18.80;;;18.30;61.20;;;;;;5055428;28;20433;-53
2020/12/01 07:21:24;;;;;;;29.75;20.00;;;18.30;61.40;;;;;;5055408;28;20036;-51
2020/12/01 07:23:50;;;;;;;25.92;18.20;;;18.30;61.40;;;;;;5054874;28;20076;-53
2020/12/01 07:26:25;;;;;;;27.50;18.33;;;18.40;61.10;;;;;;5055020;28;20056;-51
2020/12/01 07:29:07;;;;;;;31.42;18.80;;;18.50;60.90;;;;;;5055075;28;20382;-53
2020/12/01 07:31:36;;;;;;;24.38;16.92;;;18.60;60.70;;;;;;5054977;28;20036;-53
2020/12/01 07:34:20;;;;;;;25.00;17.60;;;18.60;60.20;;;;;;5055321;28;20100;-53
2020/12/01 07:36:49;;;;;;;27.98;17.48;;;18.80;59.90;;;;;;5054765;28;20029;-53
2020/12/01 07:39:21;;;;;;;29.05;17.70;;;18.80;59.80;;;;;;5054690;28;20460;-51
2020/12/01 07:41:57;;;;;;;26.48;16.85;;;18.80;60.30;;;;;;5054738;28;20065;-50
2020/12/01 07:44:30;;;;;;;24.63;15.98;;;18.90;59.50;;;;;;5054716;28;20025;-53
2020/12/01 07:47:12;;;;;;;25.38;17.15;;;19.00;59.30;;;;;;5053948;28;20418;-51
2020/12/01 07:49:38;;;;;;;25.65;17.38;;;19.10;59.30;;;;;;5054465;28;20037;-52
2020/12/01 07:52:07;;;;;;;24.55;16.23;;;18.90;59.60;;;;;;5054553;28;20373;-55
2020/12/01 07:54:35;;;;;;;25.83;16.98;;;18.90;59.70;;;;;;5054286;28;20021;-51
2020/12/01 07:57:16;;;;;;;26.33;17.23;;;19.00;59.90;;;;;;5054509;28;20087;-54
2020/12/01 07:59:45;;;;;;;27.30;17.85;;;19.00;59.70;;;;;;5054552;28;20036;-52
2020/12/01 08:02:13;;;;;;;26.50;16.27;;;19.10;59.60;;;;;;5054364;28;20362;-53
2020/12/01 08:04:39;;;;;;;22.92;16.13;;;19.10;59.50;;;;;;5054333;28;20389;-52
2020/12/01 08:07:06;;;;;;;21.83;15.65;;;19.00;59.50;;;;;;5054383;28;20028;-55
2020/12/01 08:09:32;;;;;;;24.55;16.13;;;18.90;59.60;;;;;;5054113;28;20033;-54
2020/12/01 08:12:09;;;;;;;23.33;16.08;;;18.90;59.80;;;;;;5054304;28;20376;-55
2020/12/01 08:14:35;;;;;;;22.20;15.50;;;18.90;59.80;;;;;;5054158;28;20444;-52
2020/12/01 08:17:21;;;;;;;24.40;16.40;;;18.80;59.80;;;;;;5053819;28;20036;-54
2020/12/01 08:19:47;;;;;;;24.40;15.52;;;18.80;59.80;;;;;;5054610;28;20028;-53
2020/12/01 08:22:19;;;;;;;21.52;15.88;;;18.80;59.90;;;;;;5053647;28;20032;-52
2020/12/01 08:24:49;;;;;;;20.58;14.82;;;18.70;60.00;;;;;;5038202;28;20037;-52
2020/12/01 08:27:24;;;;;;;22.45;16.13;;;18.70;60.10;;;;;;5034121;28;20059;-53
2020/12/01 08:29:53;;;;;;;25.20;15.63;;;18.70;60.20;;;;;;5033022;28;20048;-59
2020/12/01 08:32:32;;;;;;;21.05;15.75;;;18.60;61.00;;;;;;5033884;28;20087;-51
2020/12/01 08:35:31;;;;;;;28.08;17.05;;;18.60;61.00;;;;;;5033717;28;20381;-49
2020/12/01 08:38:02;;;;;;;30.33;19.27;;;18.60;61.30;;;;;;5033753;28;20036;-49
2020/12/01 08:41:05;;;;;;;28.17;18.08;;;18.70;62.80;;;;;;5034319;28;20035;-54
2020/12/01 08:43:50;;;;;;;25.35;17.45;;;18.80;61.50;;;;;;5033793;28;20042;-50
2020/12/01 08:46:28;;;;;;;24.70;16.88;;;18.70;61.70;;;;;;5033813;28;20033;-51
2020/12/01 08:49:06;;;;;;;25.88;16.70;;;18.50;62.10;;;;;;5033796;28;20049;-53
2020/12/01 08:51:56;;;;;;;23.88;16.45;;;18.60;62.20;;;;;;5034085;28;20037;-52
2020/12/01 08:54:25;;;;;;;27.42;17.85;;;18.70;62.10;;;;;;5033634;28;20398;-51
2020/12/01 08:56:50;;;;;;;33.42;22.67;;;18.70;61.70;;;;;;5042094;28;20053;-52
2020/12/01 08:59:46;;;;;;;57.67;38.13;;;18.80;60.20;;;;;;5046298;28;20056;-56
2020/12/01 09:02:14;;;;;;;107.10;65.13;;;18.80;59.50;;;;;;5052248;28;20060;-51
2020/12/01 09:04:40;;;;;;;153.43;90.07;;;18.60;60.20;;;;;;5053202;28;20025;-50
2020/12/01 09:07:31;;;;;;;136.80;79.60;;;18.50;59.60;;;;;;5053187;28;20017;-49
2020/12/01 09:10:27;;;;;;;121.65;71.38;;;18.40;58.20;;;;;;5054076;28;20358;-49
2020/12/01 09:13:10;;;;;;;104.03;63.88;;;18.20;57.80;;;;;;5052953;28;20044;-52
2020/12/01 09:15:54;;;;;;;93.90;55.85;;;18.20;57.50;;;;;;5053503;28;20032;-56
2020/12/01 09:19:06;;;;;;;96.82;57.10;;;18.10;58.00;;;;;;5054200;28;20029;-51
2020/12/01 09:24:17;;;;;;;84.88;50.75;;;18.10;58.30;;;;;;5033298;28;20552;-52
2020/12/01 09:26:43;;;;;;;83.15;49.17;;;18.00;58.50;;;;;;5046861;28;20078;-49
2020/12/01 09:29:09;;;;;;;74.28;45.92;;;18.10;58.60;;;;;;5073561;28;20037;-51
2020/12/01 09:31:40;;;;;;;68.22;43.28;;;18.10;58.50;;;;;;5071513;28;20550;-51
2020/12/01 09:34:05;;;;;;;70.50;43.03;;;18.10;58.50;;;;;;5072314;28;20024;-51
2020/12/01 09:36:31;;;;;;;74.10;45.53;;;18.10;58.40;;;;;;5055294;28;20025;-53
2020/12/01 09:38:56;;;;;;;71.45;42.83;;;18.10;58.50;;;;;;5052045;28;20033;-52
2020/12/01 09:41:25;;;;;;;67.75;42.45;;;18.20;58.60;;;;;;5052895;28;20025;-52
2020/12/01 09:46:36;;;;;;;67.03;42.35;;;18.30;58.60;;;;;;5053306;28;20029;-56
2020/12/01 09:49:02;;;;;;;62.13;38.53;;;18.30;58.60;;;;;;5053664;28;20064;-53
2020/12/01 09:51:30;;;;;;;70.75;40.63;;;18.30;58.70;;;;;;5053115;28;20040;-51
2020/12/01 10:09:56;;;;;;;54.22;32.45;;;19.10;57.30;;;;;;5074203;28;20027;-51
2020/12/01 10:17:50;;;;;;;52.60;32.65;;;19.00;57.60;;;;;;5076532;28;20027;-51
2020/12/01 10:36:23;;;;;;;43.20;29.38;;;18.90;58.80;;;;;;5036457;28;20056;-50
2020/12/01 10:38:48;;;;;;;47.50;28.95;;;18.90;59.20;;;;;;5035959;28;20021;-50
2020/12/01 10:41:14;;;;;;;44.92;28.85;;;19.00;59.10;;;;;;5036083;28;20021;-48
2020/12/01 10:43:40;;;;;;;51.60;29.20;;;19.00;60.30;;;;;;5036130;28;20079;-55
2020/12/01 10:46:08;;;;;;;47.40;27.17;;;19.00;59.40;;;;;;5036074;28;20051;-56
2020/12/01 10:48:34;;;;;;;42.15;26.95;;;18.90;60.00;;;;;;5036008;28;20490;-54
2020/12/01 10:51:00;;;;;;;44.28;29.17;;;18.90;60.30;;;;;;5035857;28;20072;-55
2020/12/01 10:53:25;;;;;;;48.83;26.98;;;18.70;60.40;;;;;;5035944;28;20034;-54
2020/12/01 10:55:51;;;;;;;45.22;27.88;;;18.80;60.60;;;;;;5035897;28;20148;-54
2020/12/01 10:58:16;;;;;;;42.88;25.90;;;18.90;60.10;;;;;;5035699;28;20104;-52
2020/12/01 11:00:42;;;;;;;42.78;25.23;;;19.00;59.70;;;;;;5035249;28;20385;-51
2020/12/01 11:03:07;;;;;;;42.35;26.33;;;19.00;59.30;;;;;;5035636;28;20036;-56
2020/12/01 11:05:33;;;;;;;41.45;26.23;;;19.00;59.30;;;;;;5035653;28;20106;-51
2020/12/01 11:08:00;;;;;;;39.17;25.88;;;18.90;59.30;;;;;;5034935;28;20080;-52
2020/12/01 11:10:26;;;;;;;36.13;23.77;;;18.80;59.80;;;;;;5035784;28;20060;-51
2020/12/01 11:12:52;;;;;;;40.58;26.00;;;18.70;59.90;;;;;;5035768;28;20386;-51
2020/12/01 11:15:18;;;;;;;40.00;25.90;;;18.60;60.10;;;;;;5035535;28;20022;-57
2020/12/01 11:17:43;;;;;;;39.17;25.45;;;18.50;60.30;;;;;;5035552;28;20057;-52
2020/12/01 11:20:13;;;;;;;39.40;25.45;;;18.50;60.40;;;;;;5035176;28;20036;-51
2020/12/01 11:22:38;;;;;;;37.53;24.67;;;18.40;60.20;;;;;;5038629;28;20025;-49
2020/12/01 11:25:04;;;;;;;37.38;23.70;;;18.40;60.50;;;;;;5042950;28;20032;-49
2020/12/01 11:27:30;;;;;;;37.17;23.70;;;18.50;61.10;;;;;;5050753;28;20522;-49
2020/12/01 11:29:56;;;;;;;38.17;24.75;;;18.40;60.30;;;;;;5055127;28;20036;-49
2020/12/01 11:32:22;;;;;;;40.25;23.90;;;18.30;60.60;;;;;;5035410;28;20044;-49
2020/12/01 11:34:47;;;;;;;33.20;21.60;;;18.20;60.70;;;;;;5034777;28;20485;-55
2020/12/01 11:37:13;;;;;;;39.00;23.15;;;18.20;60.70;;;;;;5035113;28;20029;-56
2020/12/01 11:39:38;;;;;;;36.55;23.00;;;18.20;60.80;;;;;;5044175;28;20025;-50
2020/12/01 11:42:04;;;;;;;39.80;23.85;;;18.20;60.60;;;;;;5054022;28;20091;-54
2020/12/01 11:44:30;;;;;;;35.08;22.30;;;18.20;60.40;;;;;;5054954;28;20112;-51
2020/12/01 11:46:56;;;;;;;33.08;22.63;;;18.30;60.40;;;;;;5054807;28;20082;-54
2020/12/01 11:49:23;;;;;;;35.85;22.45;;;18.20;60.40;;;;;;5054611;28;20025;-50
2020/12/01 11:51:50;;;;;;;34.75;21.65;;;18.20;60.50;;;;;;5054881;28;20043;-55
2020/12/01 11:54:17;;;;;;;36.10;23.10;;;18.10;60.50;;;;;;5054652;28;20121;-50
2020/12/01 11:56:42;;;;;;;36.78;21.92;;;18.10;60.70;;;;;;5045184;28;20074;-51
2020/12/01 11:59:08;;;;;;;31.83;21.33;;;18.20;60.50;;;;;;5034666;28;20378;-50
2020/12/01 12:01:37;;;;;;;30.98;20.20;;;18.30;60.10;;;;;;5034405;28;20545;-52
2020/12/01 12:04:04;;;;;;;31.08;20.73;;;18.40;59.80;;;;;;5034214;28;20030;-52
2020/12/01 12:06:30;;;;;;;33.17;20.00;;;18.50;59.50;;;;;;5034443;28;20036;-56
2020/12/01 12:08:56;;;;;;;31.58;20.42;;;18.60;59.20;;;;;;5034604;28;20025;-49
2020/12/01 12:11:21;;;;;;;32.35;20.70;;;18.60;59.30;;;;;;5042128;28;20033;-49
2020/12/01 12:13:47;;;;;;;28.55;20.08;;;18.60;59.50;;;;;;5054245;28;20036;-55
2020/12/01 12:16:16;;;;;;;31.33;20.83;;;18.60;59.40;;;;;;5053334;28;20416;-63
2020/12/01 12:18:42;;;;;;;31.85;21.25;;;18.80;59.70;;;;;;5051017;28;20037;-55
2020/12/01 12:21:07;;;;;;;32.25;20.60;;;18.90;59.60;;;;;;5054327;28;20021;-58
2020/12/01 12:23:33;;;;;;;31.40;20.90;;;19.10;59.30;;;;;;5044577;28;20474;-57
2020/12/01 12:25:59;;;;;;;33.80;21.52;;;19.20;59.50;;;;;;5037425;28;20021;-50
2020/12/01 12:28:25;;;;;;;34.83;22.27;;;19.20;59.50;;;;;;5072655;28;20024;-48
2020/12/01 12:30:52;;;;;;;38.00;22.80;;;19.30;62.00;;;;;;5064153;28;20056;-47
2020/12/01 12:33:18;;;;;;;35.70;20.73;;;19.30;62.10;;;;;;5053299;28;20060;-52
2020/12/01 12:35:44;;;;;;;36.15;22.65;;;19.30;61.60;;;;;;5053771;28;20021;-49
2020/12/01 12:38:09;;;;;;;34.15;22.40;;;19.30;62.90;;;;;;5053133;28;20032;-47
2020/12/01 12:40:35;;;;;;;37.28;21.88;;;19.30;63.70;;;;;;5053535;28;20383;-47
2020/12/01 12:43:01;;;;;;;36.53;22.08;;;19.20;64.10;;;;;;5053582;28;20477;-47
2020/12/01 12:45:27;;;;;;;36.53;21.75;;;19.20;66.30;;;;;;5053810;28;20036;-50
2020/12/01 12:47:52;;;;;;;37.83;22.50;;;19.10;64.60;;;;;;5052602;28;20021;-47
2020/12/01 12:50:18;;;;;;;30.40;20.38;;;19.20;64.00;;;;;;5053680;28;20583;-50
2020/12/01 12:52:44;;;;;;;30.67;20.58;;;19.30;63.50;;;;;;5053914;28;20108;-49
2020/12/01 12:55:09;;;;;;;28.42;19.75;;;19.30;62.90;;;;;;5053950;28;20082;-50
2020/12/01 12:57:35;;;;;;;33.72;20.38;;;19.40;62.90;;;;;;5053294;28;20107;-56
2020/12/01 13:00:01;;;;;;;36.28;21.27;;;19.30;63.40;;;;;;5053598;28;20031;-50
2020/12/01 13:02:26;;;;;;;41.65;26.90;;;19.20;63.40;;;;;;5053067;28;20056;-48
2020/12/01 13:04:52;;;;;;;112.18;68.18;;;19.20;62.90;;;;;;5049571;28;20025;-47
2020/12/01 13:07:17;;;;;;;127.00;70.95;;;19.10;62.70;;;;;;5053513;28;20047;-48
2020/12/01 13:09:44;;;;;;;182.48;105.40;;;19.10;63.30;;;;;;5053309;28;20029;-53
2020/12/01 13:12:10;;;;;;;182.18;103.95;;;19.00;65.30;;;;;;5053542;28;20091;-55
2020/12/01 13:14:37;;;;;;;160.85;92.63;;;19.00;64.70;;;;;;5053464;28;20021;-50
2020/12/01 13:17:02;;;;;;;139.48;82.50;;;18.90;64.00;;;;;;5053722;28;20029;-53
2020/12/01 13:19:28;;;;;;;138.77;80.78;;;18.90;64.20;;;;;;5052115;28;20018;-49
2020/12/01 13:21:54;;;;;;;123.60;72.38;;;18.80;64.00;;;;;;5051959;28;20033;-53
2020/12/01 13:24:19;;;;;;;120.40;68.07;;;18.70;63.80;;;;;;5051219;28;20025;-49
2020/12/01 13:26:45;;;;;;;110.97;66.65;;;18.80;63.90;;;;;;5061309;28;20357;-49